createdAt,value
2024-01-26T00:00:37.704Z,4.90
2024-01-26T00:03:06.816Z,3.63
2024-01-26T00:05:35.498Z,4.40
2024-01-26T00:08:05.346Z,6.10
2024-01-26T00:10:35.101Z,5.10
2024-01-26T00:13:03.811Z,3.87
2024-01-26T00:15:32.610Z,3.47
2024-01-26T00:18:02.705Z,4.97
2024-01-26T00:20:31.399Z,5.00
2024-01-26T00:23:00.097Z,4.90
2024-01-26T00:25:28.732Z,4.00
2024-01-26T00:27:57.331Z,4.30
2024-01-26T00:30:26.037Z,4.47
2024-01-26T00:32:55.593Z,3.70
2024-01-26T00:35:25.680Z,4.43
2024-01-26T00:37:54.328Z,4.60
2024-01-26T00:40:22.965Z,4.70
2024-01-26T00:42:51.696Z,4.40
2024-01-26T00:45:20.284Z,4.27
2024-01-26T00:47:49.117Z,4.47
2024-01-26T00:50:17.963Z,3.13
2024-01-26T00:52:48.463Z,3.57
2024-01-26T00:55:17.203Z,4.30
2024-01-26T00:57:45.916Z,3.10
2024-01-26T01:00:15.400Z,4.20
2024-01-26T01:02:44.324Z,3.70
2024-01-26T01:05:13.044Z,4.70
2024-01-26T01:07:41.736Z,3.40
2024-01-26T01:10:12.545Z,4.10
2024-01-26T01:12:41.260Z,3.90
2024-01-26T01:15:12.750Z,3.60
2024-01-26T01:17:41.565Z,3.50
2024-01-26T01:20:13.697Z,4.10
2024-01-26T01:22:43.210Z,3.20
2024-01-26T01:25:13.415Z,4.50
2024-01-26T01:27:42.177Z,4.20
2024-01-26T01:30:11.309Z,3.30
2024-01-26T01:32:39.992Z,3.60
2024-01-26T01:35:09.233Z,4.03
2024-01-26T01:37:37.824Z,3.57
2024-01-26T01:40:08.356Z,3.03
2024-01-26T01:42:38.384Z,4.23
2024-01-26T01:45:12.373Z,4.53
2024-01-26T01:47:41.058Z,4.03
2024-01-26T01:50:10.417Z,3.90
2024-01-26T01:52:41.476Z,4.07
2024-01-26T01:55:12.126Z,3.37
2024-01-26T01:57:42.666Z,3.27
2024-01-26T02:00:17.605Z,4.07
2024-01-26T02:02:47.571Z,3.80
2024-01-26T02:05:16.617Z,4.83
2024-01-26T02:07:49.049Z,3.80
2024-01-26T02:10:17.627Z,4.17
2024-01-26T02:12:47.711Z,4.60
2024-01-26T02:15:16.376Z,4.40
2024-01-26T02:17:45.662Z,3.77
2024-01-26T02:20:14.366Z,4.00
2024-01-26T02:22:42.941Z,3.90
2024-01-26T02:25:12.902Z,4.13
2024-01-26T02:27:41.686Z,3.38
2024-01-26T02:30:11.119Z,4.00
2024-01-26T02:32:39.774Z,3.60
2024-01-26T02:35:09.772Z,3.53
2024-01-26T02:37:38.343Z,3.65
2024-01-26T02:40:09.015Z,3.90
2024-01-26T02:42:39.198Z,3.43
2024-01-26T02:45:08.901Z,2.88
2024-01-26T02:47:37.710Z,4.00
2024-01-26T02:50:07.723Z,3.63
2024-01-26T02:52:36.373Z,4.10
2024-01-26T02:55:05.242Z,3.30
2024-01-26T02:57:33.882Z,4.15
2024-01-26T03:00:06.052Z,3.67
2024-01-26T03:02:34.927Z,3.50
2024-01-26T03:05:03.524Z,4.67
2024-01-26T03:07:32.215Z,4.70
2024-01-26T03:10:00.839Z,4.65
2024-01-26T03:12:29.664Z,5.00
2024-01-26T03:14:58.355Z,5.40
2024-01-26T03:17:28.538Z,5.15
2024-01-26T03:19:59.100Z,5.22
2024-01-26T03:22:27.842Z,4.97
2024-01-26T03:24:56.521Z,4.40
2024-01-26T03:27:25.822Z,4.97
2024-01-26T03:29:54.472Z,5.20
2024-01-26T03:32:23.157Z,5.30
2024-01-26T03:34:53.205Z,4.20
2024-01-26T03:37:21.859Z,4.30
2024-01-26T03:39:50.486Z,4.53
2024-01-26T03:42:19.198Z,5.50
2024-01-26T03:44:48.088Z,5.25
2024-01-26T03:47:16.786Z,5.00
2024-01-26T03:49:47.063Z,4.80
2024-01-26T03:52:17.201Z,6.18
2024-01-26T03:54:45.854Z,4.75
2024-01-26T03:57:14.894Z,4.82
2024-01-26T03:59:43.562Z,4.93
2024-01-26T04:02:12.228Z,4.80
2024-01-26T04:04:40.904Z,5.00
2024-01-26T04:07:10.031Z,5.50
2024-01-26T04:09:40.185Z,4.90
2024-01-26T04:12:09.393Z,5.70
2024-01-26T04:14:38.086Z,6.50
2024-01-26T04:17:06.883Z,6.40
2024-01-26T04:19:36.783Z,6.30
2024-01-26T04:22:05.690Z,6.20
2024-01-26T04:24:34.334Z,5.93
2024-01-26T04:27:04.435Z,5.40
2024-01-26T04:29:33.084Z,6.50
2024-01-26T04:32:01.725Z,6.97
2024-01-26T04:34:30.699Z,6.40
2024-01-26T04:36:59.443Z,6.00
2024-01-26T04:39:28.086Z,6.90
2024-01-26T04:41:56.791Z,6.57
2024-01-26T04:44:26.793Z,6.23
2024-01-26T04:46:56.507Z,5.90
2024-01-26T04:49:25.372Z,6.10
2024-01-26T04:51:53.995Z,6.03
2024-01-26T04:54:23.008Z,6.77
2024-01-26T04:56:51.790Z,5.83
2024-01-26T04:59:20.461Z,6.00
2024-01-26T05:01:50.462Z,5.60
2024-01-26T05:04:19.129Z,6.50
2024-01-26T05:06:47.898Z,6.53
2024-01-26T05:09:16.829Z,6.43
2024-01-26T05:11:45.900Z,5.60
2024-01-26T05:14:14.582Z,6.70
2024-01-26T05:16:43.221Z,6.00
2024-01-26T05:19:13.356Z,5.80
2024-01-26T05:21:42.938Z,5.90
2024-01-26T05:24:11.766Z,5.30
2024-01-26T05:26:40.955Z,6.90
2024-01-26T05:29:09.749Z,6.30
2024-01-26T05:31:41.369Z,6.33
2024-01-26T05:34:10.254Z,6.50
2024-01-26T05:36:43.607Z,6.27
2024-01-26T05:39:12.574Z,6.07
2024-01-26T05:41:41.266Z,6.97
2024-01-26T05:44:09.881Z,5.83
2024-01-26T05:46:38.527Z,6.50
2024-01-26T05:49:09.396Z,7.80
2024-01-26T05:51:38.800Z,5.83
2024-01-26T05:54:08.941Z,6.73
2024-01-26T05:56:40.931Z,6.50
2024-01-26T05:59:09.653Z,6.33
2024-01-26T06:01:38.762Z,7.37
2024-01-26T06:04:07.731Z,6.37
2024-01-26T06:06:36.629Z,6.33
2024-01-26T06:09:05.589Z,6.70
2024-01-26T06:11:35.694Z,6.20
2024-01-26T06:14:04.471Z,5.10
2024-01-26T06:16:33.134Z,6.30
2024-01-26T06:19:04.274Z,5.50
2024-01-26T06:21:33.996Z,6.93
2024-01-26T06:24:02.779Z,4.67
2024-01-26T06:26:31.472Z,5.13
2024-01-26T06:29:01.460Z,5.10
2024-01-26T06:31:30.064Z,6.40
2024-01-26T06:33:59.087Z,6.23
2024-01-26T06:36:27.871Z,6.50
2024-01-26T06:38:56.567Z,6.47
2024-01-26T06:41:25.250Z,7.83
2024-01-26T06:43:53.882Z,6.23
2024-01-26T06:46:24.257Z,6.97
2024-01-26T06:48:53.100Z,6.73
2024-01-26T06:51:21.905Z,5.80
2024-01-26T06:53:50.663Z,6.93
2024-01-26T06:56:19.396Z,5.43
2024-01-26T06:58:48.067Z,6.33
2024-01-26T07:01:16.684Z,7.57
2024-01-26T07:03:46.947Z,6.57
2024-01-26T07:06:15.808Z,7.30
2024-01-26T07:08:45.388Z,8.30
2024-01-26T07:11:15.256Z,6.90
2024-01-26T07:13:43.914Z,7.47
2024-01-26T07:16:12.569Z,8.10
2024-01-26T07:18:41.403Z,7.77
2024-01-26T07:21:11.919Z,7.83
2024-01-26T07:23:42.289Z,8.50
2024-01-26T07:26:11.056Z,8.13
2024-01-26T07:28:39.712Z,9.40
2024-01-26T07:31:08.349Z,7.88
2024-01-26T07:33:37.229Z,7.38
2024-01-26T07:36:06.501Z,8.15
2024-01-26T07:38:36.554Z,9.32
2024-01-26T07:41:05.459Z,9.55
2024-01-26T07:43:34.092Z,8.07
2024-01-26T07:46:02.692Z,9.95
2024-01-26T07:48:31.689Z,9.90
2024-01-26T07:51:00.467Z,7.60
2024-01-26T07:53:29.162Z,8.53
2024-01-26T07:55:59.121Z,8.70
2024-01-26T07:58:27.767Z,10.07
2024-01-26T08:00:56.500Z,20.33
2024-01-26T08:03:25.370Z,24.00
2024-01-26T08:05:54.276Z,15.17
2024-01-26T08:08:22.909Z,11.47
2024-01-26T08:10:51.573Z,17.20
2024-01-26T08:13:21.603Z,24.30
2024-01-26T08:15:50.290Z,16.60
2024-01-26T08:18:19.184Z,23.23
2024-01-26T08:20:48.225Z,10.67
2024-01-26T08:23:17.018Z,27.90
2024-01-26T08:25:45.938Z,22.87
2024-01-26T08:28:14.657Z,15.63
2024-01-26T08:30:44.775Z,11.60
2024-01-26T08:33:13.604Z,14.30
2024-01-26T08:35:43.022Z,11.60
2024-01-26T08:38:11.798Z,9.13
2024-01-26T08:40:40.431Z,9.33
2024-01-26T08:43:10.112Z,9.60
2024-01-26T08:45:38.680Z,12.57
2024-01-26T08:48:09.362Z,8.43
2024-01-26T08:50:40.048Z,9.10
2024-01-26T08:53:10.509Z,9.13
2024-01-26T08:55:40.681Z,7.50
2024-01-26T08:58:09.376Z,6.63
2024-01-26T09:00:38.225Z,7.43
2024-01-26T09:03:08.558Z,6.80
2024-01-26T09:05:37.318Z,8.20
2024-01-26T09:08:06.397Z,7.07
2024-01-26T09:10:35.288Z,35.57
2024-01-26T09:13:04.033Z,13.03
2024-01-26T09:15:32.621Z,10.60
2024-01-26T09:18:02.259Z,7.70
2024-01-26T09:20:32.629Z,8.37
2024-01-26T09:23:01.315Z,7.30
2024-01-26T09:25:29.958Z,6.90
2024-01-26T09:27:58.620Z,18.83
2024-01-26T09:30:27.432Z,11.33
2024-01-26T09:32:56.159Z,9.20
2024-01-26T09:35:26.029Z,7.10
2024-01-26T09:37:56.037Z,6.47
2024-01-26T09:40:25.199Z,8.63
2024-01-26T09:42:54.034Z,6.90
2024-01-26T09:45:23.993Z,7.97
2024-01-26T09:47:52.904Z,6.33
2024-01-26T09:50:22.381Z,6.40
2024-01-26T09:52:52.467Z,6.73
2024-01-26T09:55:22.632Z,6.50
2024-01-26T09:57:51.236Z,6.83
2024-01-26T10:00:20.604Z,5.83
2024-01-26T10:02:50.384Z,6.70
2024-01-26T10:05:19.647Z,5.37
2024-01-26T10:07:48.290Z,5.60
2024-01-26T10:10:17.802Z,5.43
2024-01-26T10:12:47.864Z,5.37
2024-01-26T10:15:18.205Z,5.90
2024-01-26T10:17:48.692Z,6.53
2024-01-26T10:20:19.913Z,5.93
2024-01-26T10:22:48.762Z,6.17
2024-01-26T10:25:17.444Z,6.43
2024-01-26T10:27:47.533Z,5.63
2024-01-26T10:30:16.585Z,6.00
2024-01-26T10:32:47.709Z,5.43
2024-01-26T10:35:17.568Z,5.03
2024-01-26T10:37:46.472Z,6.50
2024-01-26T10:40:18.472Z,5.67
2024-01-26T10:42:49.507Z,6.10
2024-01-26T10:45:18.436Z,5.50
2024-01-26T10:47:47.398Z,6.00
2024-01-26T10:50:16.362Z,5.67
2024-01-26T10:52:46.379Z,5.63
2024-01-26T10:55:16.024Z,5.50
2024-01-26T10:57:44.748Z,7.30
2024-01-26T11:00:16.937Z,5.83
2024-01-26T11:02:45.861Z,4.30
2024-01-26T11:05:14.857Z,4.60
2024-01-26T11:07:46.385Z,5.07
2024-01-26T11:10:19.369Z,5.37
2024-01-26T11:12:48.011Z,5.93
2024-01-26T11:15:19.522Z,4.70
2024-01-26T11:17:51.660Z,4.10
2024-01-26T11:20:26.757Z,4.17
2024-01-26T11:23:02.340Z,4.30
2024-01-26T11:25:36.574Z,5.07
2024-01-26T11:28:06.069Z,3.50
2024-01-26T11:30:36.840Z,3.90
2024-01-26T11:33:16.193Z,4.60
2024-01-26T11:35:44.904Z,4.73
2024-01-26T11:38:13.554Z,4.00
2024-01-26T11:40:42.215Z,3.50
2024-01-26T11:43:11.381Z,3.60
2024-01-26T11:45:45.895Z,3.53
2024-01-26T11:48:15.299Z,4.00
2024-01-26T11:50:44.742Z,4.90
2024-01-26T11:53:14.977Z,5.50
2024-01-26T11:55:44.560Z,5.30
2024-01-26T11:58:13.300Z,4.03
2024-01-26T12:00:42.582Z,6.50
2024-01-26T12:03:13.611Z,5.90
2024-01-26T12:05:42.719Z,5.83
2024-01-26T12:08:11.584Z,3.70
2024-01-26T12:10:40.469Z,12.67
2024-01-26T12:13:12.990Z,10.60
2024-01-26T12:15:42.664Z,6.70
2024-01-26T12:18:13.728Z,9.30
2024-01-26T12:20:43.264Z,4.60
2024-01-26T12:23:19.349Z,3.60
2024-01-26T12:25:49.302Z,3.67
2024-01-26T12:28:18.166Z,3.40
2024-01-26T12:30:47.651Z,3.37
2024-01-26T12:33:18.916Z,4.37
2024-01-26T12:35:48.783Z,4.23
2024-01-26T12:38:18.257Z,4.20
2024-01-26T12:40:48.400Z,3.07
2024-01-26T12:43:17.559Z,4.00
2024-01-26T12:45:46.232Z,3.53
2024-01-26T12:48:15.306Z,3.50
2024-01-26T12:50:45.458Z,4.03
2024-01-26T12:53:16.785Z,3.90
2024-01-26T12:55:45.675Z,3.53
2024-01-26T12:58:14.398Z,4.27
2024-01-26T13:00:43.381Z,3.63
2024-01-26T13:03:12.149Z,3.87
2024-01-26T13:05:41.182Z,3.70
2024-01-26T13:08:11.691Z,3.78
2024-01-26T13:10:40.939Z,4.20
2024-01-26T13:13:10.003Z,3.80
2024-01-26T13:15:38.597Z,3.97
2024-01-26T13:18:17.797Z,3.63
2024-01-26T13:20:53.620Z,4.20
2024-01-26T13:23:24.560Z,24.10
2024-01-26T13:25:55.461Z,5.23
2024-01-26T13:28:25.311Z,3.23
2024-01-26T13:30:54.238Z,3.83
2024-01-26T13:33:23.411Z,3.40
2024-01-26T13:35:52.234Z,4.10
2024-01-26T13:38:22.191Z,4.20
2024-01-26T13:40:52.030Z,4.27
2024-01-26T13:43:20.847Z,4.33
2024-01-26T13:45:49.451Z,9.63
2024-01-26T13:48:18.632Z,6.40
2024-01-26T13:50:49.924Z,4.10
2024-01-26T13:53:22.000Z,3.70
2024-01-26T13:55:52.214Z,4.60
2024-01-26T13:58:21.601Z,3.77
2024-01-26T14:00:50.460Z,3.20
2024-01-26T14:03:20.167Z,2.70
2024-01-26T14:05:49.268Z,2.80
2024-01-26T14:08:18.003Z,2.20
2024-01-26T14:10:46.663Z,3.00
2024-01-26T14:13:16.656Z,2.93
2024-01-26T14:15:45.263Z,2.50
2024-01-26T14:18:14.059Z,2.53
2024-01-26T14:20:42.811Z,2.83
2024-01-26T14:23:11.624Z,2.47
2024-01-26T14:25:41.317Z,5.07
2024-01-26T14:28:10.822Z,2.97
2024-01-26T14:30:40.872Z,2.57
2024-01-26T14:33:09.795Z,2.40
2024-01-26T14:35:42.969Z,2.83
2024-01-26T14:38:13.437Z,2.70
2024-01-26T14:40:42.155Z,2.47
2024-01-26T14:43:11.498Z,2.50
2024-01-26T14:45:41.410Z,2.63
2024-01-26T14:48:10.304Z,3.03
2024-01-26T14:50:39.219Z,2.63
2024-01-26T14:53:07.926Z,3.00
2024-01-26T14:55:36.808Z,3.23
2024-01-26T14:58:05.664Z,2.30
2024-01-26T15:00:36.169Z,2.30
2024-01-26T15:03:06.739Z,2.43
2024-01-26T15:05:35.452Z,3.10
2024-01-26T15:08:04.126Z,2.70
2024-01-26T15:10:32.728Z,1.50
2024-01-26T15:13:01.495Z,1.70
2024-01-26T15:15:30.175Z,1.50
2024-01-26T15:17:58.879Z,1.30
2024-01-26T15:20:29.042Z,1.10
2024-01-26T15:22:57.780Z,1.20
2024-01-26T15:25:26.390Z,2.00
2024-01-26T15:27:55.031Z,1.43
2024-01-26T15:30:23.760Z,0.97
2024-01-26T15:32:52.501Z,1.00
2024-01-26T15:35:21.234Z,1.27
2024-01-26T15:37:51.373Z,0.67
2024-01-26T15:40:20.541Z,1.30
2024-01-26T15:42:49.204Z,1.70
2024-01-26T15:45:17.996Z,0.93
2024-01-26T15:47:47.392Z,0.93
2024-01-26T15:50:16.239Z,1.33
2024-01-26T15:52:46.783Z,1.43
2024-01-26T15:55:17.742Z,1.33
2024-01-26T15:57:46.866Z,1.80
2024-01-26T16:00:16.745Z,1.17
2024-01-26T16:02:45.621Z,1.60
2024-01-26T16:05:14.393Z,1.20
2024-01-26T16:07:43.272Z,1.43
2024-01-26T16:10:12.137Z,1.53
2024-01-26T16:12:42.414Z,1.40
2024-01-26T16:15:11.878Z,1.80
2024-01-26T16:17:41.008Z,1.70
2024-01-26T16:20:12.330Z,2.07
2024-01-26T16:22:40.986Z,1.50
2024-01-26T16:25:10.440Z,2.00
2024-01-26T16:27:39.218Z,1.57
2024-01-26T16:30:12.032Z,1.23
2024-01-26T16:32:40.918Z,1.77
2024-01-26T16:35:10.530Z,1.03
2024-01-26T16:37:39.226Z,1.03
2024-01-26T16:40:10.623Z,1.27
2024-01-26T16:42:39.496Z,1.00
2024-01-26T16:45:10.428Z,0.87
2024-01-26T16:47:39.214Z,0.60
2024-01-26T16:50:08.864Z,0.80
2024-01-26T16:52:39.023Z,0.70
2024-01-26T16:55:08.618Z,0.60
2024-01-26T16:57:37.267Z,0.60
2024-01-26T17:00:06.632Z,0.83
2024-01-26T17:02:36.806Z,0.80
2024-01-26T17:05:06.295Z,0.70
2024-01-26T17:07:35.735Z,0.80
2024-01-26T17:10:04.651Z,1.27
2024-01-26T17:12:33.738Z,1.30
2024-01-26T17:15:02.542Z,1.10
2024-01-26T17:17:31.306Z,1.70
2024-01-26T17:20:01.479Z,1.50
2024-01-26T17:22:30.072Z,1.57
2024-01-26T17:24:59.287Z,1.40
2024-01-26T17:27:27.984Z,0.97
2024-01-26T17:29:57.524Z,1.80
2024-01-26T17:32:26.201Z,1.40
2024-01-26T17:34:55.004Z,1.07
2024-01-26T17:37:25.300Z,0.90
2024-01-26T17:40:00.162Z,1.20
2024-01-26T17:42:32.650Z,1.20
2024-01-26T17:45:01.561Z,1.33
2024-01-26T17:47:30.275Z,2.10
2024-01-26T17:49:59.821Z,1.40
2024-01-26T17:52:30.423Z,1.77
2024-01-26T17:54:59.019Z,1.40
2024-01-26T17:57:27.697Z,1.13
2024-01-26T17:59:56.350Z,1.30
2024-01-26T18:02:27.779Z,1.23
2024-01-26T18:04:56.705Z,1.23
2024-01-26T18:07:25.360Z,1.30
2024-01-26T18:09:55.361Z,0.83
2024-01-26T18:12:24.094Z,1.20
2024-01-26T18:14:53.960Z,1.33
2024-01-26T18:17:22.717Z,1.50
2024-01-26T18:19:51.403Z,1.40
2024-01-26T18:22:20.156Z,2.30
2024-01-26T18:24:49.116Z,1.23
2024-01-26T18:27:19.185Z,2.60
2024-01-26T18:29:47.848Z,1.77
2024-01-26T18:32:16.505Z,1.60
2024-01-26T18:34:45.342Z,2.70
2024-01-26T18:37:15.511Z,1.67
2024-01-26T18:39:44.938Z,1.77
2024-01-26T18:42:13.782Z,1.87
2024-01-26T18:44:43.815Z,2.20
2024-01-26T18:47:12.512Z,2.47
2024-01-26T18:49:41.992Z,2.27
2024-01-26T18:52:10.868Z,3.07
2024-01-26T18:54:40.075Z,2.63
2024-01-26T18:57:09.065Z,3.73
2024-01-26T18:59:38.073Z,3.00
2024-01-26T19:02:09.022Z,2.10
2024-01-26T19:04:38.518Z,3.20
2024-01-26T19:07:07.423Z,2.70
2024-01-26T19:09:37.255Z,2.60
2024-01-26T19:12:09.402Z,2.73
2024-01-26T19:14:39.747Z,2.50
2024-01-26T19:17:10.825Z,2.50
2024-01-26T19:19:43.172Z,2.63
2024-01-26T19:22:12.229Z,3.47
2024-01-26T19:24:41.141Z,2.40
2024-01-26T19:27:10.240Z,2.77
2024-01-26T19:29:40.816Z,2.90
2024-01-26T19:32:10.957Z,3.00
2024-01-26T19:34:39.885Z,3.27
2024-01-26T19:37:09.231Z,3.53
2024-01-26T19:39:37.816Z,4.87
2024-01-26T19:42:07.079Z,3.77
2024-01-26T19:44:35.927Z,2.80
2024-01-26T19:47:04.777Z,3.03
2024-01-26T19:49:34.903Z,3.23
2024-01-26T19:52:04.084Z,3.30
2024-01-26T19:54:32.864Z,2.90
2024-01-26T19:57:01.642Z,3.10
2024-01-26T19:59:30.274Z,3.00
2024-01-26T20:01:58.915Z,1.90
2024-01-26T20:04:27.532Z,2.13
2024-01-26T20:06:58.166Z,2.90
2024-01-26T20:09:27.788Z,2.77
2024-01-26T20:11:56.795Z,3.33
2024-01-26T20:14:25.410Z,2.70
2024-01-26T20:16:54.098Z,2.70
2024-01-26T20:19:22.964Z,2.80
2024-01-26T20:21:51.716Z,3.00
2024-01-26T20:24:22.421Z,3.67
2024-01-26T20:26:51.463Z,2.50
2024-01-26T20:29:20.238Z,2.00
2024-01-26T20:31:50.111Z,2.50
2024-01-26T20:34:19.118Z,3.77
2024-01-26T20:36:48.047Z,2.30
2024-01-26T20:39:16.701Z,2.47
2024-01-26T20:41:52.443Z,2.90
2024-01-26T20:44:21.467Z,2.50
2024-01-26T20:46:50.658Z,2.20
2024-01-26T20:49:19.489Z,2.20
2024-01-26T20:51:51.418Z,2.03
2024-01-26T20:54:21.023Z,2.13
2024-01-26T20:56:51.152Z,2.30
2024-01-26T20:59:19.810Z,2.40
2024-01-26T21:01:48.802Z,2.80
2024-01-26T21:04:17.504Z,3.03
2024-01-26T21:06:46.411Z,3.30
2024-01-26T21:09:15.242Z,2.33
2024-01-26T21:11:44.637Z,2.90
2024-01-26T21:14:14.912Z,2.50
2024-01-26T21:16:43.576Z,3.10
2024-01-26T21:19:12.356Z,2.60
2024-01-26T21:21:41.133Z,3.40
2024-01-26T21:24:10.745Z,2.80
2024-01-26T21:26:39.453Z,2.43
2024-01-26T21:29:08.679Z,2.70
2024-01-26T21:31:38.644Z,1.80
2024-01-26T21:34:07.503Z,2.33
2024-01-26T21:36:36.290Z,2.57
2024-01-26T21:39:05.268Z,2.80
2024-01-26T21:41:35.121Z,2.60
2024-01-26T21:44:04.274Z,2.93
2024-01-26T21:46:33.146Z,2.70
2024-01-26T21:49:03.629Z,3.63
2024-01-26T21:51:43.089Z,3.87
2024-01-26T21:54:20.692Z,2.70
2024-01-26T21:56:49.518Z,2.07
2024-01-26T21:59:18.157Z,3.27
2024-01-26T22:01:46.853Z,2.60
2024-01-26T22:04:18.920Z,2.17
2024-01-26T22:06:49.796Z,2.70
2024-01-26T22:09:18.712Z,3.07
2024-01-26T22:11:47.509Z,2.90
2024-01-26T22:14:17.012Z,3.07
2024-01-26T22:16:46.060Z,3.30
2024-01-26T22:19:16.260Z,2.97
2024-01-26T22:21:44.957Z,2.70
2024-01-26T22:24:13.787Z,2.20
2024-01-26T22:26:42.551Z,3.10
2024-01-26T22:29:11.254Z,2.27
2024-01-26T22:31:39.849Z,2.60
2024-01-26T22:34:08.563Z,2.80
2024-01-26T22:36:38.627Z,2.30
2024-01-26T22:39:07.286Z,3.20
2024-01-26T22:41:36.116Z,3.20
2024-01-26T22:44:04.817Z,2.23
2024-01-26T22:46:33.476Z,2.83
2024-01-26T22:49:02.272Z,2.80
2024-01-26T22:51:30.974Z,2.77
2024-01-26T22:54:04.087Z,2.50
2024-01-26T22:56:32.811Z,2.60
2024-01-26T22:59:01.460Z,3.70
2024-01-26T23:01:31.809Z,2.73
2024-01-26T23:04:00.748Z,2.80
2024-01-26T23:06:29.553Z,2.37
2024-01-26T23:08:58.206Z,2.47
2024-01-26T23:11:30.018Z,2.43
2024-01-26T23:13:58.648Z,2.40
2024-01-26T23:16:28.191Z,2.20
2024-01-26T23:18:57.402Z,3.27
2024-01-26T23:21:26.082Z,2.10
2024-01-26T23:23:54.782Z,3.10
2024-01-26T23:26:23.396Z,3.03
2024-01-26T23:28:53.470Z,3.07
2024-01-26T23:31:22.115Z,2.97
2024-01-26T23:33:50.913Z,2.60
2024-01-26T23:36:19.661Z,2.47
2024-01-26T23:38:48.308Z,2.60
2024-01-26T23:41:16.003Z,2.43
2024-01-26T23:43:45.559Z,3.63
2024-01-26T23:46:15.566Z,3.33
2024-01-26T23:48:44.260Z,3.33
2024-01-26T23:51:12.932Z,2.23
2024-01-26T23:53:41.627Z,1.80
2024-01-26T23:56:10.229Z,2.30
2024-01-26T23:58:38.935Z,3.13
